Terminal Aerodrome Forecast
Issued by NWS Duluth, MN

Home | Current Version | Previous Version | Text Only | Print | Product List | Glossary On
Versions: 1 2 3 4 5 6 7 8 9 10 11 12 13 14 15 16 17 18 19
000
FTUS43 KDLH 221700
TAFINL
TAF
KINL 221727Z 2218/2318 21011KT P6SM BKN150
     FM222200 22013G21KT P6SM SCT018 BKN060
     FM230200 23012KT P6SM -SN BKN015 OVC035
     FM230500 24009KT 5SM -FZRA BR OVC012
     FM231000 25007KT 4SM -SNPL OVC007
     FM231600 30008KT 1 1/2SM -FZDZ BR OVC005=

USA.gov is the U.S. government's official web portal to all federal, state and local government web resources and services.